Volin, South Dakota
Current Conditions -  °F | °C
As of 8:35 PM on Tuesday 21 Oct 2014 (Local Time) from KYKN Reporting Station
Clear Clear  
Wind Chill: 64°   Ceiling: Unl
Heat Index: 64°   Visibility: 8mi
Dew Point: 43°   Wind: 14mph
Humidity: 45%   Direction: 140°SE
Pressure: 29.97"   Gusts: 20mph
Location:  42.96°N, 97.18°W
Report Text: KYKN 220135Z AUTO 14012G17KT 8SM CLR 18/06 A2997 RMK AO1
Loading
Personal Weather Stations






























Interactive Weather Map New forecast layout! Learn more

10-Day Weather Forecast

Advertisements
Track Severe Weather on mobile